ARCT2: Red River, ARthur City

                                SHEF ID:       ARCT2     Red River at Arthur City, TX
STATION TYPE: Stream Gauge
Regulating: Stage = 27.00, Flow = 84609

PRECIP ELEVATION STAGE STAGE(2) RIV-FLOW BAT-LOAD
in ft ft ft cfs volt
Ccp-Rev Ccp-Rev Ccp-Rev Ccp-Rev Ccp-Rev Ccp-Rev
(America/Chicago)
05/01 00:00 0.01 ---- 9.03 ---- 8666 12.49
05/01 01:00 0.00 ---- 8.97 ---- 8546 12.49
05/01 02:00 0.00 ---- 8.92 ---- 8447 12.49
05/01 03:00 0.00 ---- 8.86 ---- 8329 12.41
05/01 04:00 0.00 ---- 8.78 ---- 8173 12.41
05/01 05:00 0.01 ---- 8.73 ---- 8076 12.41
05/01 06:00 0.00 ---- 8.65 ---- 7921 12.41
05/01 07:00 0.00 ---- 8.56 ---- 7749 12.41
05/01 08:00 0.00 ---- 8.50 ---- 7635 12.65
05/01 09:00 0.00 ---- 8.42 ---- 7484 13.29
05/01 10:00 0.00 ---- 8.38 ---- 7409 13.68
05/01 11:00 0.00 ---- 8.29 ---- 7241 13.68
05/01 12:00 0.00 ---- 8.18 ---- 7038 13.68
05/01 13:00 0.00 ---- 8.05 ---- 6801 13.92
05/01 14:00 0.00 ---- 8.01 ---- 6729 13.84
05/01 15:00 0.00 ---- 8.00 ---- 6711 13.84
05/01 16:00 0.00 ---- 7.97 ---- 6657 13.60
05/01 17:00 0.00 ---- 7.95 ---- 6621 13.44
05/01 18:00 0.00 ---- 7.92 ---- 6567 13.44
05/01 19:00 0.00 ---- 7.88 ---- 6492 13.44
05/01 20:00 0.00 ---- 7.90 ---- 6530 13.21
05/01 21:00 0.00 ---- 7.91 ---- 6549 12.73
05/01 22:00 0.00 ---- 7.89 ---- 6511 12.57
05/01 23:00 0.00 ---- 7.84 ---- 6416 12.57
Data processed at Sat 02May2026 04:30 GMT

NOTICE: If you are parsing this page

Please convert to using our Data API. Starting early 2026 we will be migrating to: https://water.usace.army.mil with modern pages rendered in JavaScript. When this migration completes you will no longer be able to scrape this page! CWMSDataAPI (CDA)

Timeseries IDs (TSIDs)

TSIDs used from left to right in the data table
ARTH.Precip-Inc.Total.1Hour.1Hour.Ccp-Rev
ARTH.Stage.Inst.1Hour.0.Ccp-Rev
ARTH.Stage-Alt.Inst.1Hour.0.Ccp-Rev
ARTH.Flow.Inst.1Hour.0.Ccp-Rev
ARTH.Volt-Battery Load.Inst.1Hour.0.Ccp-Rev

                            

All information presented herein is the property of the government of the United States of America and may be revised or deleted at any time without prior notice. Dissemination of this information without the expressed written consent of the Public Affairs Office, Tulsa District U.S. Army Corps of Engineers is strictly prohibited. These data are gathered electronically and, as presented, have NOT undergone any form of quality control. These data are NOT guaranteed to be valid or correct.